Time,TemperatureF,DewpointF,PressureIn,WindDirection,WindDirectionDegrees,WindSpeedMPH,WindSpeedGustMPH,Humidity,HourlyPrecipIn,Conditions,Clouds,dailyrainin,SoftwareType,DateUTC
2014-09-23 00:04:00,74.3,73.1,29.89,ESE,115,0.0,0.0,96,0.00,,---,0.00,VWS V15.00,2014-09-23 04:04:00,
2014-09-23 00:09:00,74.3,73.1,29.89,ESE,115,0.0,0.0,96,0.00,,---,0.00,VWS V15.00,2014-09-23 04:09:00,
2014-09-23 00:14:00,74.4,73.2,29.90,ESE,115,0.0,0.0,96,0.00,,---,0.00,VWS V15.00,2014-09-23 04:14:00,
2014-09-23 00:19:00,74.4,73.2,29.90,ESE,115,0.0,0.0,96,0.00,,---,0.00,VWS V15.00,2014-09-23 04:19:00,
2014-09-23 00:24:00,74.3,73.1,29.90,ESE,115,0.0,0.0,96,0.00,,---,0.00,VWS V15.00,2014-09-23 04:24:00,
2014-09-23 00:29:00,74.2,73.0,29.90,ESE,115,0.0,0.0,96,0.00,,---,0.00,VWS V15.00,2014-09-23 04:29:00,
2014-09-23 00:34:00,74.2,73.0,29.90,ESE,115,0.0,0.0,96,0.00,,---,0.00,VWS V15.00,2014-09-23 04:34:00,
2014-09-23 00:39:00,74.1,72.9,29.90,ESE,115,0.0,0.0,96,0.00,,---,0.00,VWS V15.00,2014-09-23 04:39:00,
2014-09-23 00:44:00,74.0,72.8,29.90,ESE,115,0.0,0.0,96,0.00,,---,0.00,VWS V15.00,2014-09-23 04:44:00,
2014-09-23 00:49:00,74.0,72.8,29.91,ESE,115,0.0,0.0,96,0.00,,---,0.00,VWS V15.00,2014-09-23 04:49:00,
2014-09-23 00:54:00,73.9,72.7,29.91,ESE,115,0.0,0.0,96,0.00,,---,0.00,VWS V15.00,2014-09-23 04:54:00,
2014-09-23 00:59:00,73.8,72.6,29.91,ESE,115,0.0,0.0,96,0.00,,---,0.00,VWS V15.00,2014-09-23 04:59:00,
2014-09-23 01:04:00,73.8,72.6,29.91,ESE,115,0.0,0.0,96,0.00,,---,0.00,VWS V15.00,2014-09-23 05:04:00,
2014-09-23 01:09:00,73.8,72.6,29.91,ESE,115,0.0,0.0,96,0.00,,---,0.00,VWS V15.00,2014-09-23 05:09:00,
2014-09-23 01:14:00,73.8,72.6,29.90,ESE,115,0.0,0.0,96,0.00,,---,0.00,VWS V15.00,2014-09-23 05:14:00,
2014-09-23 01:19:00,74.0,72.8,29.90,East,88,2.0,2.0,96,0.00,,---,0.00,VWS V15.00,2014-09-23 05:19:00,
2014-09-23 01:24:00,74.2,73.0,29.90,ENE,70,0.0,2.0,96,0.00,,---,0.00,VWS V15.00,2014-09-23 05:24:00,
2014-09-23 01:29:00,74.3,73.1,29.90,SE,131,1.0,4.0,96,0.00,,---,0.00,VWS V15.00,2014-09-23 05:29:00,
2014-09-23 01:34:00,74.6,73.1,29.89,ENE,72,0.0,4.0,95,0.00,,---,0.00,VWS V15.00,2014-09-23 05:34:00,
2014-09-23 01:39:00,74.8,73.0,29.89,ENE,72,0.0,4.0,94,0.00,,---,0.00,VWS V15.00,2014-09-23 05:39:00,
2014-09-23 01:44:00,74.9,72.7,29.89,ENE,72,0.0,4.0,93,0.00,,---,0.00,VWS V15.00,2014-09-23 05:44:00,
2014-09-23 01:49:00,74.9,72.7,29.88,ENE,72,0.0,4.0,93,0.00,,---,0.00,VWS V15.00,2014-09-23 05:49:00,
2014-09-23 01:53:00,74.9,72.7,29.87,ENE,72,0.0,4.0,93,0.00,,---,0.00,VWS V15.00,2014-09-23 05:53:00,
2014-09-23 01:58:00,74.8,72.6,29.87,ENE,72,0.0,0.0,93,0.00,,---,0.00,VWS V15.00,2014-09-23 05:58:00,
2014-09-23 02:03:00,74.7,72.6,29.87,ENE,72,0.0,0.0,93,0.00,,---,0.00,VWS V15.00,2014-09-23 06:03:00,
2014-09-23 02:08:00,74.6,72.4,29.86,ENE,72,0.0,0.0,93,0.00,,---,0.00,VWS V15.00,2014-09-23 06:08:00,
2014-09-23 02:13:00,74.5,72.7,29.86,ENE,72,0.0,0.0,94,0.00,,---,0.00,VWS V15.00,2014-09-23 06:13:00,
2014-09-23 02:18:00,74.5,72.7,29.86,ENE,72,0.0,0.0,94,0.00,,---,0.00,VWS V15.00,2014-09-23 06:18:00,
2014-09-23 02:23:00,74.5,72.7,29.86,ENE,72,0.0,0.0,94,0.00,,---,0.00,VWS V15.00,2014-09-23 06:23:00,
2014-09-23 02:28:00,74.4,72.2,29.86,ENE,72,0.0,0.0,93,0.00,,---,0.00,VWS V15.00,2014-09-23 06:28:00,
2014-09-23 02:33:00,74.4,72.2,29.86,ENE,72,0.0,0.0,93,0.00,,---,0.00,VWS V15.00,2014-09-23 06:33:00,
2014-09-23 02:38:00,74.4,72.2,29.86,East,98,0.0,2.0,93,0.00,,---,0.00,VWS V15.00,2014-09-23 06:38:00,
2014-09-23 02:43:00,74.4,72.2,29.86,East,98,0.0,2.0,93,0.00,,---,0.00,VWS V15.00,2014-09-23 06:43:00,
2014-09-23 02:48:00,74.4,72.2,29.86,East,98,0.0,2.0,93,0.00,,---,0.00,VWS V15.00,2014-09-23 06:48:00,
2014-09-23 02:53:00,74.3,71.8,29.86,East,98,0.0,2.0,92,0.00,,---,0.00,VWS V15.00,2014-09-23 06:53:00,
2014-09-23 02:58:00,74.1,71.6,29.85,East,98,0.0,2.0,92,0.00,,---,0.00,VWS V15.00,2014-09-23 06:58:00,
2014-09-23 03:02:00,74.0,71.5,29.85,East,98,0.0,0.0,92,0.00,,---,0.00,VWS V15.00,2014-09-23 07:02:00,
2014-09-23 03:07:00,73.9,71.8,29.85,East,98,0.0,0.0,93,0.00,,---,0.00,VWS V15.00,2014-09-23 07:07:00,
2014-09-23 03:12:00,73.7,71.6,29.85,East,98,0.0,0.0,93,0.00,,---,0.00,VWS V15.00,2014-09-23 07:12:00,
2014-09-23 03:17:00,73.5,71.4,29.85,East,98,0.0,0.0,93,0.00,,---,0.00,VWS V15.00,2014-09-23 07:17:00,
2014-09-23 03:22:00,73.4,71.3,29.85,East,98,0.0,0.0,93,0.00,,---,0.00,VWS V15.00,2014-09-23 07:22:00,
2014-09-23 03:27:00,73.2,71.1,29.85,East,98,0.0,0.0,93,0.00,,---,0.00,VWS V15.00,2014-09-23 07:27:00,
2014-09-23 03:32:00,73.1,71.3,29.85,East,98,0.0,0.0,94,0.00,,---,0.00,VWS V15.00,2014-09-23 07:32:00,
2014-09-23 03:37:00,73.0,71.2,29.85,East,98,0.0,0.0,94,0.00,,---,0.00,VWS V15.00,2014-09-23 07:37:00,
2014-09-23 03:42:00,72.8,71.0,29.84,East,98,0.0,0.0,94,0.00,,---,0.00,VWS V15.00,2014-09-23 07:42:00,
2014-09-23 03:47:00,72.7,70.9,29.84,East,98,0.0,0.0,94,0.00,,---,0.00,VWS V15.00,2014-09-23 07:47:00,
2014-09-23 03:52:00,72.6,70.8,29.84,East,98,0.0,0.0,94,0.00,,---,0.00,VWS V15.00,2014-09-23 07:52:00,
2014-09-23 03:57:00,72.4,70.9,29.84,East,98,0.0,0.0,95,0.00,,---,0.00,VWS V15.00,2014-09-23 07:57:00,
2014-09-23 04:02:00,72.4,70.9,29.84,East,98,0.0,0.0,95,0.00,,---,0.00,VWS V15.00,2014-09-23 08:02:00,
2014-09-23 04:07:00,72.2,70.7,29.84,East,98,0.0,0.0,95,0.00,,---,0.00,VWS V15.00,2014-09-23 08:07:00,
2014-09-23 04:12:00,72.3,70.8,29.84,East,98,0.0,0.0,95,0.00,,---,0.00,VWS V15.00,2014-09-23 08:12:00,
2014-09-23 04:17:00,72.2,70.7,29.84,East,98,0.0,0.0,95,0.00,,---,0.00,VWS V15.00,2014-09-23 08:17:00,
2014-09-23 04:22:00,72.1,70.6,29.84,East,98,0.0,0.0,95,0.00,,---,0.00,VWS V15.00,2014-09-23 08:22:00,
2014-09-23 04:27:00,72.1,70.6,29.83,East,98,0.0,0.0,95,0.00,,---,0.00,VWS V15.00,2014-09-23 08:27:00,
2014-09-23 04:32:00,72.1,70.6,29.83,East,98,0.0,0.0,95,0.00,,---,0.00,VWS V15.00,2014-09-23 08:32:00,
2014-09-23 04:37:00,72.2,70.7,29.84,East,98,0.0,0.0,95,0.00,,---,0.00,VWS V15.00,2014-09-23 08:37:00,
2014-09-23 04:42:00,72.2,70.7,29.84,East,98,0.0,0.0,95,0.00,,---,0.00,VWS V15.00,2014-09-23 08:42:00,
2014-09-23 04:47:00,72.1,70.9,29.84,East,98,0.0,0.0,96,0.00,,---,0.00,VWS V15.00,2014-09-23 08:47:00,
2014-09-23 04:52:00,72.2,71.0,29.84,East,98,0.0,0.0,96,0.00,,---,0.00,VWS V15.00,2014-09-23 08:52:00,
2014-09-23 04:57:00,72.3,71.1,29.85,East,98,0.0,0.0,96,0.00,,---,0.00,VWS V15.00,2014-09-23 08:57:00,
2014-09-23 05:02:00,72.4,71.2,29.85,East,98,0.0,0.0,96,0.00,,---,0.00,VWS V15.00,2014-09-23 09:02:00,
2014-09-23 05:07:00,72.4,71.2,29.85,East,98,0.0,0.0,96,0.00,,---,0.00,VWS V15.00,2014-09-23 09:07:00,
2014-09-23 05:12:00,72.3,71.1,29.85,East,98,0.0,0.0,96,0.00,,---,0.00,VWS V15.00,2014-09-23 09:12:00,
2014-09-23 05:17:00,72.4,71.2,29.85,ENE,61,0.0,1.0,96,0.00,,---,0.00,VWS V15.00,2014-09-23 09:17:00,
2014-09-23 05:20:00,72.5,71.3,29.85,ENE,61,0.0,1.0,96,0.00,,---,0.00,VWS V15.00,2014-09-23 09:20:00,
2014-09-23 05:25:00,72.8,71.6,29.85,ENE,61,0.0,1.0,96,0.00,,---,0.00,VWS V15.00,2014-09-23 09:25:00,
2014-09-23 05:30:00,73.0,71.8,29.86,ENE,61,0.0,0.0,96,0.00,,---,0.00,VWS V15.00,2014-09-23 09:30:00,
2014-09-23 05:35:00,73.0,71.8,29.86,ENE,61,0.0,0.0,96,0.00,,---,0.00,VWS V15.00,2014-09-23 09:35:00,
2014-09-23 05:40:00,73.2,72.0,29.86,ENE,61,0.0,0.0,96,0.00,,---,0.00,VWS V15.00,2014-09-23 09:40:00,
2014-09-23 05:45:00,73.3,72.1,29.87,ENE,61,0.0,0.0,96,0.00,,---,0.00,VWS V15.00,2014-09-23 09:45:00,
2014-09-23 05:50:00,73.3,72.1,29.86,ENE,61,0.0,0.0,96,0.00,,---,0.00,VWS V15.00,2014-09-23 09:50:00,
2014-09-23 05:55:00,73.4,72.2,29.86,ENE,61,0.0,0.0,96,0.00,,---,0.00,VWS V15.00,2014-09-23 09:55:00,
2014-09-23 06:00:00,73.4,72.2,29.86,ENE,61,0.0,0.0,96,0.00,,---,0.00,VWS V15.00,2014-09-23 10:00:00,
2014-09-23 06:04:00,73.5,72.3,29.86,ENE,61,0.0,0.0,96,0.00,,---,0.00,VWS V15.00,2014-09-23 10:04:00,
2014-09-23 06:09:00,73.5,72.3,29.86,ENE,61,0.0,0.0,96,0.00,,---,0.00,VWS V15.00,2014-09-23 10:09:00,
2014-09-23 06:14:00,73.5,72.3,29.86,ENE,61,0.0,0.0,96,0.00,,---,0.00,VWS V15.00,2014-09-23 10:14:00,
2014-09-23 06:19:00,73.5,72.3,29.86,ENE,61,0.0,0.0,96,0.00,,---,0.00,VWS V15.00,2014-09-23 10:19:00,
2014-09-23 06:24:00,73.5,72.3,29.86,ENE,61,0.0,0.0,96,0.00,,---,0.00,VWS V15.00,2014-09-23 10:24:00,
2014-09-23 06:29:00,73.5,72.3,29.86,ENE,61,0.0,0.0,96,0.00,,---,0.00,VWS V15.00,2014-09-23 10:29:00,
2014-09-23 06:34:00,73.7,72.5,29.86,ENE,61,0.0,1.0,96,0.00,,---,0.00,VWS V15.00,2014-09-23 10:34:00,
2014-09-23 06:39:00,73.8,72.6,29.86,ENE,61,0.0,1.0,96,0.00,,---,0.00,VWS V15.00,2014-09-23 10:39:00,
2014-09-23 06:44:00,73.9,72.7,29.86,ENE,61,0.0,1.0,96,0.00,,---,0.00,VWS V15.00,2014-09-23 10:44:00,
2014-09-23 06:45:00,73.9,72.7,29.86,ENE,61,0.0,1.0,96,0.00,,---,0.00,VWS V15.00,2014-09-23 10:45:00,
2014-09-23 06:50:00,74.0,72.8,29.86,ENE,61,0.0,1.0,96,0.00,,---,0.00,VWS V15.00,2014-09-23 10:50:00,
2014-09-23 06:55:00,74.1,72.9,29.86,ENE,61,0.0,1.0,96,0.00,,---,0.00,VWS V15.00,2014-09-23 10:55:00,
2014-09-23 07:00:00,74.2,73.0,29.87,ENE,61,0.0,0.0,96,0.00,,---,0.00,VWS V15.00,2014-09-23 11:00:00,
2014-09-23 07:05:00,74.3,73.1,29.87,ENE,61,0.0,0.0,96,0.00,,---,0.00,VWS V15.00,2014-09-23 11:05:00,
2014-09-23 07:10:00,74.4,73.2,29.87,ENE,61,0.0,0.0,96,0.00,,---,0.00,VWS V15.00,2014-09-23 11:10:00,
2014-09-23 07:21:00,75.2,74.3,29.88,SE,142,0.0,2.0,97,0.00,,---,0.00,VWS V15.00,2014-09-23 11:21:00,
2014-09-23 07:26:00,75.5,74.3,29.88,SE,142,0.0,2.0,96,0.00,,---,0.00,VWS V15.00,2014-09-23 11:26:00,
2014-09-23 07:31:00,75.7,74.5,29.88,East,101,0.0,1.0,96,0.00,,---,0.00,VWS V15.00,2014-09-23 11:31:00,
2014-09-23 07:36:00,75.9,74.4,29.88,East,101,0.0,1.0,95,0.00,,---,0.00,VWS V15.00,2014-09-23 11:36:00,
2014-09-23 07:41:00,76.2,74.3,29.89,East,101,0.0,1.0,94,0.00,,---,0.00,VWS V15.00,2014-09-23 11:41:00,
2014-09-23 07:46:00,76.3,74.4,29.89,East,101,0.0,1.0,94,0.00,,---,0.00,VWS V15.00,2014-09-23 11:46:00,
2014-09-23 07:51:00,76.5,74.7,29.89,East,101,0.0,1.0,94,0.00,,---,0.00,VWS V15.00,2014-09-23 11:51:00,
2014-09-23 07:56:00,76.7,74.8,29.89,East,101,0.0,2.0,94,0.00,,---,0.00,VWS V15.00,2014-09-23 11:56:00,
2014-09-23 08:01:00,77.0,74.8,29.89,East,101,0.0,0.0,93,0.00,,---,0.00,VWS V15.00,2014-09-23 12:01:00,
2014-09-23 08:06:00,77.4,75.2,29.89,East,100,0.0,0.0,93,0.00,,---,0.00,VWS V15.00,2014-09-23 12:06:00,
2014-09-23 08:11:00,78.0,75.5,29.89,East,100,0.0,0.0,92,0.00,,---,0.00,VWS V15.00,2014-09-23 12:11:00,
2014-09-23 08:13:00,78.2,75.7,29.89,East,100,0.0,0.0,92,0.00,,---,0.00,VWS V15.00,2014-09-23 12:13:00,
2014-09-23 08:18:00,78.5,75.7,29.89,East,100,0.0,1.0,91,0.00,,---,0.00,VWS V15.00,2014-09-23 12:18:00,
2014-09-23 08:23:00,78.8,75.6,29.89,East,100,0.0,1.0,90,0.00,,---,0.00,VWS V15.00,2014-09-23 12:23:00,
2014-09-23 08:28:00,78.9,75.7,29.89,East,100,0.0,0.0,90,0.00,,---,0.00,VWS V15.00,2014-09-23 12:28:00,
2014-09-23 08:33:00,79.2,76.0,29.88,East,100,0.0,2.0,90,0.00,,---,0.00,VWS V15.00,2014-09-23 12:33:00,
2014-09-23 08:38:00,79.6,76.1,29.88,ESE,115,1.0,2.0,89,0.00,,---,0.00,VWS V15.00,2014-09-23 12:38:00,
2014-09-23 08:43:00,80.0,76.5,29.88,SSE,158,0.0,2.0,89,0.00,,---,0.00,VWS V15.00,2014-09-23 12:43:00,
2014-09-23 08:48:00,80.5,76.6,29.88,SSW,192,1.0,3.0,88,0.00,,---,0.00,VWS V15.00,2014-09-23 12:48:00,
2014-09-23 08:53:00,80.9,76.7,29.88,SSE,163,1.0,4.0,87,0.00,,---,0.00,VWS V15.00,2014-09-23 12:53:00,
2014-09-23 08:58:00,81.3,76.4,29.88,ESE,106,2.0,5.0,85,0.01,,---,0.01,VWS V15.00,2014-09-23 12:58:00,
2014-09-23 09:03:00,81.4,76.1,29.89,SSW,193,1.0,7.0,84,0.01,,---,0.01,VWS V15.00,2014-09-23 13:03:00,
2014-09-23 09:08:00,81.5,76.2,29.89,SSW,212,2.0,7.0,84,0.01,,---,0.01,VWS V15.00,2014-09-23 13:08:00,
2014-09-23 09:13:00,81.8,76.5,29.89,East,84,2.0,8.0,84,0.01,,---,0.01,VWS V15.00,2014-09-23 13:13:00,
2014-09-23 09:18:00,82.4,77.1,29.89,West,273,2.0,8.0,84,0.01,,---,0.01,VWS V15.00,2014-09-23 13:18:00,
2014-09-23 09:23:00,82.9,76.8,29.89,SE,141,0.0,8.0,82,0.01,,---,0.01,VWS V15.00,2014-09-23 13:23:00,
2014-09-23 09:28:00,83.3,77.2,29.90,SE,138,0.0,5.0,82,0.01,,---,0.01,VWS V15.00,2014-09-23 13:28:00,
2014-09-23 09:33:00,83.4,76.6,29.90,SW,227,3.0,6.0,80,0.01,,---,0.01,VWS V15.00,2014-09-23 13:33:00,
2014-09-23 09:38:00,83.3,76.5,29.90,ESE,119,1.0,7.0,80,0.01,,---,0.01,VWS V15.00,2014-09-23 13:38:00,
2014-09-23 09:43:00,83.5,77.1,29.90,SE,130,2.0,7.0,81,0.01,,---,0.01,VWS V15.00,2014-09-23 13:43:00,
2014-09-23 09:48:00,83.3,76.9,29.90,SE,136,2.0,7.0,81,0.01,,---,0.01,VWS V15.00,2014-09-23 13:48:00,
2014-09-23 09:53:00,83.1,76.3,29.90,SSE,153,2.0,8.0,80,0.01,,---,0.01,VWS V15.00,2014-09-23 13:53:00,
2014-09-23 09:58:00,82.6,76.2,29.90,SE,132,1.0,6.0,81,0.01,,---,0.01,VWS V15.00,2014-09-23 13:58:00,
2014-09-23 10:03:00,82.3,76.3,29.90,SSW,200,6.0,6.0,82,0.01,,---,0.01,VWS V15.00,2014-09-23 14:03:00,
2014-09-23 10:08:00,82.1,76.4,29.91,ESE,115,3.0,6.0,83,0.01,,---,0.01,VWS V15.00,2014-09-23 14:08:00,
2014-09-23 10:13:00,81.9,75.9,29.92,SE,136,3.0,9.0,82,0.01,,---,0.01,VWS V15.00,2014-09-23 14:13:00,
2014-09-23 10:18:00,81.0,75.0,29.92,SSE,168,3.0,14.0,82,0.01,,---,0.01,VWS V15.00,2014-09-23 14:18:00,
2014-09-23 10:23:00,79.5,72.8,29.93,South,174,3.0,14.0,80,0.01,,---,0.01,VWS V15.00,2014-09-23 14:23:00,
2014-09-23 10:28:00,78.0,72.1,29.93,SSE,147,1.0,2.0,82,0.00,,---,0.01,VWS V15.00,2014-09-23 14:28:00,
2014-09-23 10:31:00,77.3,72.1,29.93,SW,230,2.0,6.0,84,0.00,,---,0.01,VWS V15.00,2014-09-23 14:31:00,
2014-09-23 10:36:00,76.2,72.4,29.92,SSE,154,3.0,7.0,88,0.01,,---,0.02,VWS V15.00,2014-09-23 14:36:00,
2014-09-23 10:41:00,75.7,72.6,29.92,SSE,150,1.0,7.0,90,0.02,,---,0.03,VWS V15.00,2014-09-23 14:41:00,
2014-09-23 10:46:00,75.8,73.0,29.92,SE,144,0.0,7.0,91,0.02,,---,0.03,VWS V15.00,2014-09-23 14:46:00,
2014-09-23 10:51:00,75.8,73.0,29.92,SE,142,1.0,7.0,91,0.02,,---,0.03,VWS V15.00,2014-09-23 14:51:00,
2014-09-23 10:56:00,76.0,73.2,29.92,SSW,202,0.0,7.0,91,0.02,,---,0.03,VWS V15.00,2014-09-23 14:56:00,
2014-09-23 11:01:00,76.3,73.2,29.92,SW,221,0.0,5.0,90,0.02,,---,0.03,VWS V15.00,2014-09-23 15:01:00,
2014-09-23 11:06:00,76.6,73.4,29.93,ESE,122,0.0,7.0,90,0.02,,---,0.03,VWS V15.00,2014-09-23 15:06:00,
2014-09-23 11:11:00,77.2,74.0,29.92,SSE,148,1.0,7.0,90,0.02,,---,0.03,VWS V15.00,2014-09-23 15:11:00,
2014-09-23 11:16:00,77.6,74.4,29.92,SSW,203,0.0,7.0,90,0.02,,---,0.03,VWS V15.00,2014-09-23 15:16:00,
2014-09-23 11:21:00,77.9,74.4,29.92,SSE,162,0.0,7.0,89,0.02,,---,0.03,VWS V15.00,2014-09-23 15:21:00,
2014-09-23 11:26:00,78.2,74.4,29.92,ESE,123,3.0,7.0,88,0.02,,---,0.03,VWS V15.00,2014-09-23 15:26:00,
2014-09-23 11:31:00,78.4,73.9,29.92,SSW,193,0.0,3.0,86,0.02,,---,0.03,VWS V15.00,2014-09-23 15:31:00,
2014-09-23 11:36:00,78.7,73.8,29.92,SSE,165,0.0,7.0,85,0.02,,---,0.03,VWS V15.00,2014-09-23 15:36:00,
2014-09-23 11:41:00,79.2,73.9,29.92,SE,146,2.0,7.0,84,0.02,,---,0.03,VWS V15.00,2014-09-23 15:41:00,
2014-09-23 11:46:00,79.7,74.4,29.92,South,172,3.0,7.0,84,0.02,,---,0.03,VWS V15.00,2014-09-23 15:46:00,
2014-09-23 11:51:00,79.9,74.3,29.92,ESE,115,0.0,7.0,83,0.02,,---,0.03,VWS V15.00,2014-09-23 15:51:00,
2014-09-23 11:56:00,80.2,74.6,29.92,WSW,239,1.0,7.0,83,0.02,,---,0.03,VWS V15.00,2014-09-23 15:56:00,
2014-09-23 12:01:00,80.3,74.3,29.92,SSW,199,0.0,6.0,82,0.00,,---,0.03,VWS V15.00,2014-09-23 16:01:00,
2014-09-23 12:06:00,80.5,74.5,29.92,SE,126,1.0,7.0,82,0.00,,---,0.03,VWS V15.00,2014-09-23 16:06:00,
2014-09-23 12:11:00,80.7,74.3,29.92,SSE,155,0.0,7.0,81,0.00,,---,0.03,VWS V15.00,2014-09-23 16:11:00,
2014-09-23 12:16:00,81.1,75.1,29.92,SSE,162,4.0,7.0,82,0.00,,---,0.03,VWS V15.00,2014-09-23 16:16:00,
2014-09-23 12:21:00,81.8,75.0,29.92,SE,142,0.0,7.0,80,0.00,,---,0.03,VWS V15.00,2014-09-23 16:21:00,
2014-09-23 12:26:00,82.5,75.7,29.91,SW,228,3.0,7.0,80,0.00,,---,0.03,VWS V15.00,2014-09-23 16:26:00,
2014-09-23 12:31:00,82.8,76.0,29.91,South,172,1.0,3.0,80,0.00,,---,0.03,VWS V15.00,2014-09-23 16:31:00,
2014-09-23 12:36:00,83.3,75.7,29.91,SSW,192,1.0,6.0,78,0.00,,---,0.03,VWS V15.00,2014-09-23 16:36:00,
2014-09-23 12:41:00,83.3,75.3,29.91,SW,234,3.0,6.0,77,0.00,,---,0.03,VWS V15.00,2014-09-23 16:41:00,
2014-09-23 12:46:00,83.6,76.8,29.91,South,188,0.0,6.0,80,0.00,,---,0.03,VWS V15.00,2014-09-23 16:46:00,
2014-09-23 12:51:00,83.9,76.3,29.91,West,261,4.0,6.0,78,0.00,,---,0.03,VWS V15.00,2014-09-23 16:51:00,
2014-09-23 12:56:00,84.1,76.1,29.91,South,187,1.0,6.0,77,0.00,,---,0.03,VWS V15.00,2014-09-23 16:56:00,
2014-09-23 13:01:00,84.3,75.5,29.91,South,190,1.0,3.0,75,0.00,,---,0.03,VWS V15.00,2014-09-23 17:01:00,
2014-09-23 13:06:00,84.3,74.7,29.91,ESE,123,1.0,7.0,73,0.00,,---,0.03,VWS V15.00,2014-09-23 17:06:00,
2014-09-23 13:11:00,84.5,75.7,29.90,SW,217,2.0,7.0,75,0.00,,---,0.03,VWS V15.00,2014-09-23 17:11:00,
2014-09-23 13:16:00,84.3,75.1,29.90,SSW,196,6.0,10.0,74,0.00,,---,0.03,VWS V15.00,2014-09-23 17:16:00,
2014-09-23 13:21:00,83.8,75.0,29.90,SW,224,5.0,10.0,75,0.00,,---,0.03,VWS V15.00,2014-09-23 17:21:00,
2014-09-23 13:26:00,83.8,75.4,29.90,SSE,157,1.0,10.0,76,0.00,,---,0.03,VWS V15.00,2014-09-23 17:26:00,
2014-09-23 13:31:00,83.7,75.3,29.90,South,171,3.0,6.0,76,0.00,,---,0.03,VWS V15.00,2014-09-23 17:31:00,
2014-09-23 13:35:00,83.8,75.4,29.90,SE,145,3.0,6.0,76,0.00,,---,0.03,VWS V15.00,2014-09-23 17:35:00,
2014-09-23 13:40:00,84.1,75.7,29.89,South,176,2.0,6.0,76,0.00,,---,0.03,VWS V15.00,2014-09-23 17:40:00,
2014-09-23 13:45:00,84.6,76.2,29.89,SW,225,0.0,6.0,76,0.00,,---,0.03,VWS V15.00,2014-09-23 17:45:00,
2014-09-23 13:50:00,85.0,75.8,29.89,SSW,197,3.0,6.0,74,0.00,,---,0.03,VWS V15.00,2014-09-23 17:50:00,
2014-09-23 13:55:00,84.8,75.2,29.89,SSW,205,0.0,6.0,73,0.00,,---,0.03,VWS V15.00,2014-09-23 17:55:00,
2014-09-23 14:00:00,84.6,75.8,29.89,South,187,1.0,3.0,75,0.00,,---,0.03,VWS V15.00,2014-09-23 18:00:00,
2014-09-23 14:05:00,84.1,74.1,29.89,SSE,152,2.0,6.0,72,0.00,,---,0.03,VWS V15.00,2014-09-23 18:05:00,
2014-09-23 14:10:00,83.8,74.6,29.88,SW,221,7.0,7.0,74,0.00,,---,0.03,VWS V15.00,2014-09-23 18:10:00,
2014-09-23 14:15:00,83.5,73.9,29.88,SE,140,2.0,7.0,73,0.00,,---,0.03,VWS V15.00,2014-09-23 18:15:00,
2014-09-23 14:20:00,83.2,73.7,29.88,SW,219,5.0,7.0,73,0.00,,---,0.03,VWS V15.00,2014-09-23 18:20:00,
2014-09-23 14:25:00,82.8,73.7,29.88,South,191,2.0,7.0,74,0.00,,---,0.03,VWS V15.00,2014-09-23 18:25:00,
2014-09-23 14:30:00,82.5,73.8,29.88,SSE,168,3.0,3.0,75,0.00,,---,0.03,VWS V15.00,2014-09-23 18:30:00,
2014-09-23 14:35:00,82.1,73.8,29.88,ESE,104,0.0,6.0,76,0.00,,---,0.03,VWS V15.00,2014-09-23 18:35:00,
2014-09-23 14:40:00,82.0,74.1,29.87,SSW,209,2.0,6.0,77,0.00,,---,0.03,VWS V15.00,2014-09-23 18:40:00,
2014-09-23 14:45:00,81.9,74.0,29.88,SSW,202,4.0,7.0,77,0.00,,---,0.03,VWS V15.00,2014-09-23 18:45:00,
2014-09-23 14:50:00,81.7,74.2,29.87,West,264,1.0,7.0,78,0.00,,---,0.03,VWS V15.00,2014-09-23 18:50:00,
2014-09-23 14:55:00,81.7,74.2,29.87,WSW,245,3.0,7.0,78,0.00,,---,0.03,VWS V15.00,2014-09-23 18:55:00,
2014-09-23 15:00:00,81.8,74.3,29.87,South,190,3.0,7.0,78,0.00,,---,0.03,VWS V15.00,2014-09-23 19:00:00,
2014-09-23 15:05:00,81.9,74.8,29.87,SE,128,2.0,7.0,79,0.00,,---,0.03,VWS V15.00,2014-09-23 19:05:00,
2014-09-23 15:10:00,82.0,74.5,29.86,SSW,195,5.0,8.0,78,0.00,,---,0.03,VWS V15.00,2014-09-23 19:10:00,
2014-09-23 15:15:00,81.9,74.8,29.86,South,191,1.0,8.0,79,0.00,,---,0.03,VWS V15.00,2014-09-23 19:15:00,
2014-09-23 15:20:00,82.0,74.8,29.86,SE,132,2.0,8.0,79,0.00,,---,0.03,VWS V15.00,2014-09-23 19:20:00,
2014-09-23 15:25:00,82.2,74.3,29.85,South,169,3.0,8.0,77,0.00,,---,0.03,VWS V15.00,2014-09-23 19:25:00,
2014-09-23 15:30:00,82.1,73.4,29.85,SSW,193,2.0,6.0,75,0.00,,---,0.03,VWS V15.00,2014-09-23 19:30:00,
2014-09-23 15:35:00,81.9,72.8,29.85,SW,220,5.0,7.0,74,0.00,,---,0.03,VWS V15.00,2014-09-23 19:35:00,
2014-09-23 15:40:00,81.6,72.9,29.84,SE,138,1.0,7.0,75,0.00,,---,0.03,VWS V15.00,2014-09-23 19:40:00,
2014-09-23 15:45:00,81.4,73.5,29.84,South,186,0.0,7.0,77,0.00,,---,0.03,VWS V15.00,2014-09-23 19:45:00,
2014-09-23 15:50:00,81.2,73.3,29.84,SSE,154,1.0,8.0,77,0.00,,---,0.03,VWS V15.00,2014-09-23 19:50:00,
2014-09-23 15:55:00,81.1,74.0,29.84,SSW,194,0.0,8.0,79,0.00,,---,0.03,VWS V15.00,2014-09-23 19:55:00,
2014-09-23 16:00:00,81.0,73.9,29.84,SE,138,3.0,5.0,79,0.00,,---,0.03,VWS V15.00,2014-09-23 20:00:00,
2014-09-23 16:05:00,80.9,74.2,29.84,ENE,72,0.0,5.0,80,0.00,,---,0.03,VWS V15.00,2014-09-23 20:05:00,
2014-09-23 16:10:00,80.7,74.0,29.84,WNW,282,0.0,5.0,80,0.00,,---,0.03,VWS V15.00,2014-09-23 20:10:00,
2014-09-23 16:15:00,80.5,73.8,29.84,SW,235,1.0,5.0,80,0.00,,---,0.03,VWS V15.00,2014-09-23 20:15:00,
2014-09-23 16:20:00,80.5,74.1,29.84,WSW,248,1.0,5.0,81,0.00,,---,0.03,VWS V15.00,2014-09-23 20:20:00,
2014-09-23 16:25:00,80.5,73.8,29.83,South,176,1.0,5.0,80,0.00,,---,0.03,VWS V15.00,2014-09-23 20:25:00,
2014-09-23 16:30:00,80.6,73.9,29.83,SW,236,3.0,3.0,80,0.00,,---,0.03,VWS V15.00,2014-09-23 20:30:00,
2014-09-23 16:35:00,80.8,73.7,29.83,SW,234,0.0,4.0,79,0.00,,---,0.03,VWS V15.00,2014-09-23 20:35:00,
2014-09-23 16:40:00,81.0,74.2,29.83,WSW,247,0.0,4.0,80,0.00,,---,0.03,VWS V15.00,2014-09-23 20:40:00,
2014-09-23 16:45:00,81.3,74.2,29.83,West,261,0.0,4.0,79,0.00,,---,0.03,VWS V15.00,2014-09-23 20:45:00,
2014-09-23 16:50:00,81.5,74.7,29.83,ENE,61,0.0,4.0,80,0.00,,---,0.03,VWS V15.00,2014-09-23 20:50:00,
2014-09-23 16:55:00,81.7,74.6,29.82,NE,56,0.0,4.0,79,0.00,,---,0.03,VWS V15.00,2014-09-23 20:55:00,
2014-09-23 17:00:00,81.9,74.8,29.82,NE,56,0.0,1.0,79,0.00,,---,0.03,VWS V15.00,2014-09-23 21:00:00,
2014-09-23 17:05:00,82.1,74.9,29.82,SW,236,0.0,2.0,79,0.00,,---,0.03,VWS V15.00,2014-09-23 21:05:00,
2014-09-23 17:10:00,82.3,75.5,29.82,WSW,254,0.0,2.0,80,0.00,,---,0.03,VWS V15.00,2014-09-23 21:10:00,
2014-09-23 17:15:00,82.5,74.9,29.82,SE,129,0.0,2.0,78,0.00,,---,0.03,VWS V15.00,2014-09-23 21:15:00,
2014-09-23 17:20:00,82.7,74.4,29.83,NE,51,0.0,2.0,76,0.00,,---,0.03,VWS V15.00,2014-09-23 21:20:00,
2014-09-23 17:25:00,83.0,75.1,29.82,NE,51,0.0,2.0,77,0.00,,---,0.03,VWS V15.00,2014-09-23 21:25:00,
2014-09-23 17:30:00,83.1,74.8,29.82,South,174,0.0,1.0,76,0.00,,---,0.03,VWS V15.00,2014-09-23 21:30:00,
2014-09-23 17:35:00,83.1,74.8,29.82,South,174,0.0,1.0,76,0.00,,---,0.03,VWS V15.00,2014-09-23 21:35:00,
2014-09-23 17:40:00,83.2,74.8,29.82,South,174,0.0,1.0,76,0.00,,---,0.03,VWS V15.00,2014-09-23 21:40:00,
2014-09-23 17:45:00,83.1,74.8,29.82,South,174,0.0,1.0,76,0.00,,---,0.03,VWS V15.00,2014-09-23 21:45:00,
2014-09-23 17:50:00,82.8,74.1,29.82,South,174,0.0,1.0,75,0.00,,---,0.03,VWS V15.00,2014-09-23 21:50:00,
2014-09-23 17:55:00,82.6,74.3,29.82,SE,130,0.0,1.0,76,0.00,,---,0.03,VWS V15.00,2014-09-23 21:55:00,
2014-09-23 18:00:00,82.4,74.1,29.82,SE,130,0.0,0.0,76,0.00,,---,0.03,VWS V15.00,2014-09-23 22:00:00,
2014-09-23 18:05:00,82.2,73.9,29.82,SE,130,0.0,1.0,76,0.00,,---,0.03,VWS V15.00,2014-09-23 22:05:00,
2014-09-23 18:10:00,82.0,73.7,29.82,SE,130,0.0,1.0,76,0.00,,---,0.03,VWS V15.00,2014-09-23 22:10:00,
2014-09-23 18:15:00,81.9,74.4,29.82,SE,130,0.0,1.0,78,0.00,,---,0.03,VWS V15.00,2014-09-23 22:15:00,
2014-09-23 18:20:00,81.8,74.3,29.83,SE,130,0.0,1.0,78,0.00,,---,0.03,VWS V15.00,2014-09-23 22:20:00,
2014-09-23 18:25:00,81.7,74.2,29.83,SE,130,0.0,1.0,78,0.00,,---,0.03,VWS V15.00,2014-09-23 22:25:00,
2014-09-23 18:30:00,81.6,73.7,29.83,SE,130,0.0,0.0,77,0.00,,---,0.03,VWS V15.00,2014-09-23 22:30:00,
2014-09-23 18:35:00,81.3,73.4,29.83,SE,130,0.0,0.0,77,0.00,,---,0.03,VWS V15.00,2014-09-23 22:35:00,
2014-09-23 18:40:00,81.1,74.0,29.83,SE,130,0.0,0.0,79,0.00,,---,0.03,VWS V15.00,2014-09-23 22:40:00,
2014-09-23 18:45:00,80.9,73.4,29.83,SE,130,0.0,0.0,78,0.00,,---,0.03,VWS V15.00,2014-09-23 22:45:00,
2014-09-23 18:50:00,80.6,73.5,29.83,SE,130,0.0,0.0,79,0.00,,---,0.03,VWS V15.00,2014-09-23 22:50:00,
2014-09-23 18:55:00,80.4,73.7,29.83,SE,130,0.0,0.0,80,0.00,,---,0.03,VWS V15.00,2014-09-23 22:55:00,
2014-09-23 19:00:00,80.2,73.5,29.83,SE,130,0.0,0.0,80,0.00,,---,0.03,VWS V15.00,2014-09-23 23:00:00,
2014-09-23 19:05:00,79.9,73.9,29.83,SE,130,0.0,0.0,82,0.00,,---,0.03,VWS V15.00,2014-09-23 23:05:00,
2014-09-23 19:10:00,79.6,73.6,29.84,SE,130,0.0,0.0,82,0.00,,---,0.03,VWS V15.00,2014-09-23 23:10:00,
2014-09-23 19:15:00,79.2,73.2,29.84,SE,130,0.0,0.0,82,0.00,,---,0.03,VWS V15.00,2014-09-23 23:15:00,
2014-09-23 19:20:00,79.0,73.8,29.84,SE,130,0.0,0.0,84,0.00,,---,0.03,VWS V15.00,2014-09-23 23:20:00,
2014-09-23 19:25:00,78.7,73.8,29.85,SE,130,0.0,0.0,85,0.00,,---,0.03,VWS V15.00,2014-09-23 23:25:00,
2014-09-23 19:30:00,78.5,73.6,29.85,SE,130,0.0,0.0,85,0.00,,---,0.03,VWS V15.00,2014-09-23 23:30:00,
2014-09-23 19:35:00,78.2,73.7,29.85,SE,130,0.0,0.0,86,0.00,,---,0.03,VWS V15.00,2014-09-23 23:35:00,
2014-09-23 19:40:00,78.0,73.5,29.85,SE,130,0.0,0.0,86,0.00,,---,0.03,VWS V15.00,2014-09-23 23:40:00,
2014-09-23 19:45:00,77.9,73.7,29.86,SE,130,0.0,0.0,87,0.00,,---,0.03,VWS V15.00,2014-09-23 23:45:00,
2014-09-23 19:50:00,77.7,73.5,29.86,SE,130,0.0,0.0,87,0.00,,---,0.03,VWS V15.00,2014-09-23 23:50:00,
2014-09-23 19:55:00,77.6,73.8,29.86,SE,130,0.0,0.0,88,0.00,,---,0.03,VWS V15.00,2014-09-23 23:55:00,
2014-09-23 20:00:00,77.4,73.6,29.86,SE,130,0.0,0.0,88,0.00,,---,0.03,VWS V15.00,2014-09-24 00:00:00,
2014-09-23 20:05:00,77.3,73.5,29.86,SE,130,0.0,0.0,88,0.00,,---,0.03,VWS V15.00,2014-09-24 00:05:00,
2014-09-23 20:10:00,77.2,73.4,29.86,SE,130,0.0,0.0,88,0.00,,---,0.03,VWS V15.00,2014-09-24 00:10:00,
2014-09-23 20:15:00,77.2,73.7,29.87,SE,130,0.0,0.0,89,0.00,,---,0.03,VWS V15.00,2014-09-24 00:15:00,
2014-09-23 20:20:00,77.2,73.7,29.87,SE,130,0.0,0.0,89,0.00,,---,0.03,VWS V15.00,2014-09-24 00:20:00,
2014-09-23 20:25:00,77.1,73.6,29.87,SE,130,0.0,0.0,89,0.00,,---,0.03,VWS V15.00,2014-09-24 00:25:00,
2014-09-23 20:30:00,77.0,73.2,29.87,SE,130,0.0,0.0,88,0.00,,---,0.03,VWS V15.00,2014-09-24 00:30:00,
2014-09-23 20:35:00,77.0,73.5,29.87,SE,130,0.0,0.0,89,0.00,,---,0.03,VWS V15.00,2014-09-24 00:35:00,
2014-09-23 20:40:00,76.9,73.1,29.88,SE,130,0.0,0.0,88,0.00,,---,0.03,VWS V15.00,2014-09-24 00:40:00,
2014-09-23 20:45:00,76.9,73.4,29.88,SE,130,0.0,0.0,89,0.00,,---,0.03,VWS V15.00,2014-09-24 00:45:00,
2014-09-23 20:50:00,76.9,73.4,29.88,SE,130,0.0,0.0,89,0.00,,---,0.03,VWS V15.00,2014-09-24 00:50:00,
2014-09-23 20:55:00,76.8,73.3,29.88,SE,130,0.0,0.0,89,0.00,,---,0.03,VWS V15.00,2014-09-24 00:55:00,
2014-09-23 21:00:00,76.8,73.3,29.89,SE,130,0.0,0.0,89,0.00,,---,0.03,VWS V15.00,2014-09-24 01:00:00,